Time;durP1;ratioP1;P1;durP2;ratioP2;P2;SDS_P1;SDS_P2;PMS_P1;PMS_P2;Temp;Humidity;BMP_temperature;BMP_pressure;BME280_temperature;BME280_humidity;BME280_pressure;Samples;Min_cycle;Max_cycle;Signal;HPM_P1;HPM_P2
2022/04/22 00:00:48;;;;;;;1.17;1.00;;;20.80;43.60;;;;;;5053766;28;20419;-61
2022/04/22 00:03:14;;;;;;;2.83;1.17;;;20.80;43.60;;;;;;5055718;28;20064;-61
2022/04/22 00:05:40;;;;;;;1.40;1.30;;;20.90;43.70;;;;;;5056960;28;20048;-63
2022/04/22 00:08:06;;;;;;;1.58;1.40;;;20.90;43.70;;;;;;5061679;28;20063;-61
2022/04/22 00:10:32;;;;;;;1.20;1.10;;;20.80;43.60;;;;;;5052710;28;20103;-62
2022/04/22 00:12:57;;;;;;;1.48;1.38;;;20.80;43.60;;;;;;5053184;28;20056;-62
2022/04/22 00:15:23;;;;;;;1.42;1.33;;;20.80;43.60;;;;;;5036238;28;20033;-64
2022/04/22 00:17:49;;;;;;;2.42;1.17;;;20.80;43.60;;;;;;5061489;28;20366;-61
2022/04/22 00:20:15;;;;;;;1.30;1.20;;;20.80;43.60;;;;;;5060188;28;20048;-61
2022/04/22 00:22:41;;;;;;;1.60;1.08;;;20.80;43.60;;;;;;5054318;28;20041;-62
2022/04/22 00:25:13;;;;;;;1.20;1.10;;;20.80;43.50;;;;;;5070544;28;20044;-61
2022/04/22 00:27:39;;;;;;;1.17;1.08;;;20.80;43.50;;;;;;5055057;28;20040;-61
2022/04/22 00:30:11;;;;;;;1.20;1.10;;;20.80;43.50;;;;;;5053604;28;20087;-62
2022/04/22 00:32:38;;;;;;;2.88;1.30;;;20.80;43.60;;;;;;5037818;28;20535;-60
2022/04/22 00:35:04;;;;;;;2.35;1.30;;;20.80;43.50;;;;;;5054007;28;20435;-64
2022/04/22 00:37:30;;;;;;;1.75;1.27;;;20.80;43.50;;;;;;5055803;28;20041;-62
2022/04/22 00:39:56;;;;;;;1.65;1.05;;;20.80;43.60;;;;;;5053137;28;20067;-64
2022/04/22 00:42:21;;;;;;;1.30;1.20;;;20.80;43.50;;;;;;5053371;28;20052;-63
2022/04/22 00:44:47;;;;;;;1.40;1.20;;;20.80;43.50;;;;;;5055128;28;20125;-61
2022/04/22 00:47:13;;;;;;;3.47;1.55;;;20.80;43.50;;;;;;5054201;28;20049;-63
2022/04/22 00:49:38;;;;;;;2.03;1.40;;;20.80;43.50;;;;;;5051880;28;20033;-62
2022/04/22 00:52:05;;;;;;;1.50;1.40;;;20.80;43.40;;;;;;5053030;28;20044;-62
2022/04/22 00:54:32;;;;;;;1.60;1.30;;;20.80;43.40;;;;;;5054954;28;20079;-65
2022/04/22 00:56:58;;;;;;;1.30;1.20;;;20.80;43.40;;;;;;5054135;28;20041;-61
2022/04/22 00:59:24;;;;;;;1.50;1.40;;;20.80;43.40;;;;;;5054265;28;20116;-63
2022/04/22 01:01:49;;;;;;;1.48;1.20;;;20.80;43.40;;;;;;5035285;28;20118;-62
2022/04/22 01:09:51;;;;;;;2.42;1.30;;;20.70;43.40;;;;;;5052819;28;20508;-62
2022/04/22 01:12:17;;;;;;;1.63;1.50;;;20.70;43.40;;;;;;5061377;28;20048;-62
2022/04/22 01:14:44;;;;;;;1.55;1.35;;;20.70;43.40;;;;;;5053871;28;20036;-65
2022/04/22 01:17:10;;;;;;;1.48;1.38;;;20.70;43.40;;;;;;5068134;28;20033;-62
2022/04/22 01:19:35;;;;;;;1.42;1.33;;;20.70;43.30;;;;;;5053508;28;20898;-63
2022/04/22 01:22:02;;;;;;;2.20;1.70;;;20.70;43.30;;;;;;5054332;28;20303;-62
2022/04/22 01:24:28;;;;;;;1.98;1.25;;;20.70;43.30;;;;;;5052458;28;20050;-61
2022/04/22 01:26:55;;;;;;;1.48;1.33;;;20.70;43.30;;;;;;5052712;28;20407;-62
2022/04/22 01:29:21;;;;;;;1.85;1.73;;;20.70;43.30;;;;;;5053625;28;20053;-63
2022/04/22 01:31:47;;;;;;;1.60;1.50;;;20.70;43.30;;;;;;5048799;28;20449;-63
2022/04/22 01:34:13;;;;;;;1.65;1.48;;;20.70;43.30;;;;;;5054561;28;20041;-64
2022/04/22 01:36:38;;;;;;;1.90;1.40;;;20.70;43.30;;;;;;5052796;28;20032;-63
2022/04/22 01:39:04;;;;;;;1.90;1.50;;;20.70;43.30;;;;;;5060296;28;20118;-63
2022/04/22 01:41:29;;;;;;;1.77;1.65;;;20.70;43.20;;;;;;5051788;28;20116;-62
2022/04/22 01:43:55;;;;;;;2.38;1.60;;;20.70;43.30;;;;;;5056242;28;20051;-62
2022/04/22 01:46:21;;;;;;;1.88;1.67;;;20.70;43.30;;;;;;5053271;28;20815;-63
2022/04/22 01:48:47;;;;;;;3.13;1.70;;;20.70;43.30;;;;;;5054944;28;20109;-62
2022/04/22 01:51:12;;;;;;;2.15;1.77;;;20.70;43.20;;;;;;5051497;28;20072;-61
2022/04/22 01:53:38;;;;;;;1.90;1.70;;;20.70;43.20;;;;;;5060369;28;20456;-60
2022/04/22 01:56:04;;;;;;;3.45;1.70;;;20.70;43.20;;;;;;5054487;28;21011;-63
2022/04/22 01:58:30;;;;;;;2.08;1.80;;;20.60;43.20;;;;;;5052435;28;20500;-62
2022/04/22 02:00:55;;;;;;;2.28;1.60;;;20.70;43.20;;;;;;5050758;28;20139;-61
2022/04/22 02:03:21;;;;;;;1.55;1.45;;;20.60;43.20;;;;;;5046421;28;20074;-61
2022/04/22 02:05:46;;;;;;;2.20;1.67;;;20.60;43.20;;;;;;5049514;28;20043;-63
2022/04/22 02:08:12;;;;;;;1.92;1.60;;;20.60;43.10;;;;;;5049435;28;20045;-63
2022/04/22 02:10:40;;;;;;;2.47;2.00;;;20.60;43.20;;;;;;5050901;28;20033;-62
2022/04/22 02:13:08;;;;;;;2.13;1.70;;;20.60;43.10;;;;;;5060276;28;20063;-63
2022/04/22 02:15:33;;;;;;;1.83;1.70;;;20.60;43.20;;;;;;5040248;28;20059;-62
2022/04/22 02:17:59;;;;;;;3.03;1.90;;;20.60;43.10;;;;;;5046784;28;20037;-63
2022/04/22 02:20:24;;;;;;;3.88;1.88;;;20.60;43.20;;;;;;5052163;28;20036;-61
2022/04/22 02:22:50;;;;;;;2.28;1.95;;;20.60;43.20;;;;;;5035016;28;20044;-62
2022/04/22 02:25:15;;;;;;;3.03;1.90;;;20.60;43.20;;;;;;5052855;28;20088;-62
2022/04/22 02:30:25;;;;;;;5.32;2.13;;;20.60;43.10;;;;;;5056331;28;20638;-63
2022/04/22 02:32:51;;;;;;;2.40;2.05;;;20.60;43.10;;;;;;5054468;28;20423;-62
2022/04/22 02:35:20;;;;;;;3.17;2.00;;;20.60;43.10;;;;;;5057021;28;20388;-62
2022/04/22 02:37:47;;;;;;;2.80;2.10;;;20.60;43.10;;;;;;5055585;28;20116;-62
2022/04/22 02:45:26;;;;;;;2.50;2.13;;;20.60;43.10;;;;;;5056874;28;20077;-61
2022/04/22 02:45:46;;;;;;;3.38;2.00;;;20.60;43.10;;;;;;5028956;28;20530;-64
2022/04/22 02:48:12;;;;;;;3.38;2.50;;;20.60;43.10;;;;;;5062200;28;20044;-62
2022/04/22 02:50:37;;;;;;;4.72;2.40;;;20.50;43.00;;;;;;5053802;28;20045;-61
2022/04/22 02:53:03;;;;;;;2.40;2.20;;;20.50;43.00;;;;;;5054596;28;20076;-61
2022/04/22 02:55:29;;;;;;;3.95;2.30;;;20.50;43.00;;;;;;5057210;28;20249;-63
2022/04/22 02:57:54;;;;;;;2.95;2.53;;;20.50;43.00;;;;;;5054871;28;20280;-63
2022/04/22 03:00:20;;;;;;;3.45;2.70;;;20.60;43.00;;;;;;5055614;28;20041;-61
2022/04/22 03:02:46;;;;;;;2.60;2.10;;;20.50;43.00;;;;;;5057759;28;20029;-61
2022/04/22 03:05:11;;;;;;;3.78;2.40;;;20.50;43.00;;;;;;5064462;28;20045;-63
2022/04/22 03:07:38;;;;;;;2.88;2.40;;;20.50;43.00;;;;;;5056574;28;20204;-63
2022/04/22 03:10:05;;;;;;;2.90;2.17;;;20.50;43.00;;;;;;5054754;28;20052;-61
2022/04/22 03:12:30;;;;;;;2.83;2.55;;;20.50;43.00;;;;;;5056574;28;20041;-61
2022/04/22 03:14:56;;;;;;;3.05;2.35;;;20.50;43.00;;;;;;5056768;28;20951;-62
2022/04/22 03:17:23;;;;;;;3.55;2.10;;;20.50;43.00;;;;;;5056022;28;20037;-64
2022/04/22 03:19:49;;;;;;;2.70;2.17;;;20.50;43.00;;;;;;5054130;28;20155;-61
2022/04/22 03:22:16;;;;;;;2.50;2.30;;;20.50;43.00;;;;;;5046580;28;20387;-63
2022/04/22 03:24:42;;;;;;;3.45;2.58;;;20.50;43.00;;;;;;5053005;28;20495;-64
2022/04/22 03:27:08;;;;;;;3.90;2.50;;;20.50;42.90;;;;;;5056281;28;20095;-61
2022/04/22 03:29:35;;;;;;;3.05;2.58;;;20.50;43.00;;;;;;5055326;28;20071;-61
2022/04/22 03:32:01;;;;;;;5.75;2.25;;;20.50;42.90;;;;;;5045798;28;20049;-62
2022/04/22 03:34:26;;;;;;;3.63;2.30;;;20.50;42.90;;;;;;5054134;28;20052;-62
2022/04/22 03:36:52;;;;;;;2.35;2.13;;;20.50;43.60;;;;;;5062072;28;20037;-62
2022/04/22 03:39:18;;;;;;;2.97;2.20;;;20.50;42.90;;;;;;5052898;28;20044;-62
2022/04/22 03:41:44;;;;;;;3.20;2.50;;;20.50;43.00;;;;;;5055451;28;20895;-61
2022/04/22 03:44:10;;;;;;;3.83;2.15;;;20.50;42.90;;;;;;5053097;28;20048;-60
2022/04/22 03:46:36;;;;;;;3.70;2.10;;;20.50;42.90;;;;;;5054508;28;20053;-60
2022/04/22 03:49:04;;;;;;;3.03;2.17;;;20.50;42.90;;;;;;5055215;28;20051;-64
2022/04/22 03:51:29;;;;;;;3.13;2.28;;;20.50;42.90;;;;;;5055347;28;20438;-61
2022/04/22 03:53:55;;;;;;;2.35;2.00;;;20.50;42.90;;;;;;5056286;28;20041;-61
2022/04/22 03:59:05;;;;;;;2.70;2.15;;;20.50;42.80;;;;;;5056690;28;20097;-63
2022/04/22 04:01:32;;;;;;;2.92;2.53;;;20.50;42.80;;;;;;5052417;28;20471;-62
2022/04/22 04:03:57;;;;;;;2.88;2.30;;;20.40;42.70;;;;;;5059127;28;20104;-63
2022/04/22 04:06:23;;;;;;;3.40;2.20;;;20.40;42.70;;;;;;5052014;28;20076;-62
2022/04/22 04:15:57;;;;;;;2.97;2.28;;;20.50;42.80;;;;;;5053451;28;20140;-64
2022/04/22 04:17:06;;;;;;;3.35;2.30;;;20.40;42.70;;;;;;5052438;28;20438;-61
2022/04/22 04:25:00;;;;;;;3.20;2.13;;;20.40;42.70;;;;;;5054885;28;20037;-63
2022/04/22 04:27:26;;;;;;;3.70;2.17;;;20.40;42.60;;;;;;5053223;28;20043;-62
2022/04/22 04:29:52;;;;;;;3.33;2.38;;;20.40;42.60;;;;;;5054112;28;20036;-63
2022/04/22 04:32:17;;;;;;;3.40;2.22;;;20.40;42.60;;;;;;5053989;28;20163;-63
2022/04/22 04:34:44;;;;;;;2.83;2.20;;;20.40;42.70;;;;;;5056733;28;20060;-63
2022/04/22 04:37:10;;;;;;;2.65;2.10;;;20.40;42.60;;;;;;5071135;28;20045;-63
2022/04/22 04:39:36;;;;;;;2.15;1.90;;;20.40;42.50;;;;;;5069408;28;20532;-63
2022/04/22 04:42:02;;;;;;;2.47;1.75;;;20.40;42.50;;;;;;5057249;28;20123;-63
2022/04/22 04:44:28;;;;;;;3.50;1.90;;;20.40;42.50;;;;;;5069667;28;20067;-62
2022/04/22 04:46:54;;;;;;;2.08;1.65;;;20.40;42.50;;;;;;5053501;28;20048;-63
2022/04/22 04:49:20;;;;;;;4.60;2.13;;;20.40;42.50;;;;;;5053830;28;20150;-63
2022/04/22 04:51:46;;;;;;;3.05;2.30;;;20.40;42.50;;;;;;5053173;28;20484;-63
2022/04/22 04:54:11;;;;;;;2.47;1.80;;;20.40;42.40;;;;;;5053442;28;20060;-63
2022/04/22 04:56:37;;;;;;;2.78;2.05;;;20.40;42.40;;;;;;5055940;28;20136;-62
2022/04/22 04:59:02;;;;;;;2.70;2.05;;;20.40;42.40;;;;;;5053833;28;20113;-62
2022/04/22 05:01:28;;;;;;;3.72;2.03;;;20.40;42.40;;;;;;5053481;28;20161;-60
2022/04/22 05:03:53;;;;;;;2.90;2.13;;;20.40;42.40;;;;;;5051358;28;20048;-64
2022/04/22 05:06:19;;;;;;;2.05;1.77;;;20.40;42.30;;;;;;5053711;28;20046;-62
2022/04/22 05:08:45;;;;;;;1.92;1.73;;;20.40;42.30;;;;;;5053263;28;20052;-62
2022/04/22 05:11:11;;;;;;;2.42;1.70;;;20.40;42.30;;;;;;5055930;28;20503;-62
2022/04/22 05:13:36;;;;;;;3.13;2.10;;;20.30;42.20;;;;;;5052539;28;20051;-64
2022/04/22 05:16:02;;;;;;;2.00;1.80;;;20.40;42.30;;;;;;5052831;28;20075;-61
2022/04/22 05:18:28;;;;;;;2.53;1.92;;;20.40;42.20;;;;;;5052161;28;20488;-62
2022/04/22 05:20:53;;;;;;;2.70;1.90;;;20.30;42.20;;;;;;5052125;28;20047;-64
2022/04/22 05:23:19;;;;;;;2.17;1.90;;;20.30;42.20;;;;;;5053198;28;20045;-60
2022/04/22 05:25:44;;;;;;;3.10;2.15;;;20.30;42.20;;;;;;5050560;28;20140;-62
2022/04/22 05:28:10;;;;;;;3.15;1.77;;;20.40;42.20;;;;;;5060382;28;20610;-61
2022/04/22 05:33:20;;;;;;;2.38;1.60;;;20.30;42.10;;;;;;5053191;28;20568;-62
2022/04/22 05:35:45;;;;;;;3.13;2.03;;;20.30;42.10;;;;;;5055340;28;20045;-64
2022/04/22 05:38:11;;;;;;;3.55;1.67;;;20.30;42.10;;;;;;5054679;28;20039;-62
2022/04/22 05:40:38;;;;;;;2.75;1.80;;;20.30;42.10;;;;;;5053682;28;20610;-63
2022/04/22 05:43:08;;;;;;;1.83;1.63;;;20.30;42.10;;;;;;5069971;28;20711;-63
2022/04/22 05:45:35;;;;;;;2.17;1.67;;;20.30;42.10;;;;;;5052203;28;20627;-62
2022/04/22 05:48:01;;;;;;;3.97;1.70;;;20.30;42.00;;;;;;5054990;28;20048;-62
2022/04/22 05:50:27;;;;;;;2.30;1.65;;;20.30;42.00;;;;;;5051699;28;20071;-62
2022/04/22 05:52:54;;;;;;;1.80;1.48;;;20.30;42.00;;;;;;5053402;28;20045;-62
2022/04/22 05:55:21;;;;;;;2.17;1.70;;;20.30;42.10;;;;;;5052578;28;20119;-61
2022/04/22 05:57:48;;;;;;;2.65;1.70;;;20.30;42.00;;;;;;5055578;28;20052;-62
2022/04/22 06:00:16;;;;;;;1.60;1.50;;;20.30;42.00;;;;;;5051791;28;20044;-62
2022/04/22 06:02:43;;;;;;;2.40;1.73;;;20.30;42.00;;;;;;5068415;28;20052;-63
2022/04/22 06:05:10;;;;;;;2.05;1.50;;;20.30;42.00;;;;;;5052637;28;20161;-62
2022/04/22 06:07:40;;;;;;;2.40;1.90;;;20.30;42.00;;;;;;5068389;28;20281;-63
2022/04/22 06:12:52;;;;;;;2.70;1.80;;;20.30;41.90;;;;;;5051470;28;20393;-64
2022/04/22 06:15:18;;;;;;;1.83;1.50;;;20.30;41.90;;;;;;5053666;28;21032;-63
2022/04/22 06:17:43;;;;;;;1.85;1.50;;;20.30;42.00;;;;;;5052327;28;20033;-62
2022/04/22 06:20:10;;;;;;;2.33;1.60;;;20.20;41.90;;;;;;5051979;28;20049;-63
2022/04/22 06:22:35;;;;;;;1.88;1.50;;;20.20;41.90;;;;;;5051428;28;20072;-62
2022/04/22 06:25:01;;;;;;;1.88;1.40;;;20.20;41.80;;;;;;5049923;28;20102;-63
2022/04/22 06:27:28;;;;;;;1.75;1.58;;;20.20;41.90;;;;;;5050772;28;20084;-64
2022/04/22 06:29:56;;;;;;;2.08;1.70;;;20.20;41.80;;;;;;5035674;28;20056;-61
2022/04/22 06:32:22;;;;;;;3.58;1.50;;;20.20;41.80;;;;;;5053036;28;20052;-61
2022/04/22 06:34:49;;;;;;;2.45;1.30;;;20.20;41.90;;;;;;5051221;28;20045;-64
2022/04/22 06:37:15;;;;;;;2.28;1.33;;;20.20;41.90;;;;;;5051104;28;20048;-63
2022/04/22 06:47:54;;;;;;;3.65;1.42;;;20.20;42.20;;;;;;5044423;28;20110;-61
2022/04/22 06:50:20;;;;;;;2.38;1.45;;;20.20;42.20;;;;;;5023122;28;20033;-66
2022/04/22 06:52:46;;;;;;;3.38;1.45;;;20.20;42.30;;;;;;5026263;28;20044;-62
2022/04/22 06:55:14;;;;;;;5.43;1.60;;;20.30;42.50;;;;;;5026544;28;20037;-63
2022/04/22 06:57:40;;;;;;;3.00;1.73;;;20.30;42.60;;;;;;5030072;28;20033;-64
2022/04/22 07:00:10;;;;;;;3.45;1.50;;;20.30;42.70;;;;;;5032437;28;20103;-63
2022/04/22 07:02:36;;;;;;;1.70;1.60;;;20.30;42.60;;;;;;5030946;28;20059;-62
2022/04/22 07:05:02;;;;;;;2.13;1.50;;;20.30;42.70;;;;;;5033816;28;20040;-62
2022/04/22 07:07:28;;;;;;;4.13;1.95;;;20.40;42.70;;;;;;5027682;28;20091;-61
2022/04/22 07:09:54;;;;;;;3.80;2.17;;;20.40;42.60;;;;;;5031509;28;20420;-62
2022/04/22 07:12:24;;;;;;;3.30;1.92;;;20.40;42.60;;;;;;5032196;28;20045;-63
2022/04/22 07:14:51;;;;;;;3.38;1.98;;;20.40;42.60;;;;;;5035754;28;20122;-65
2022/04/22 07:17:17;;;;;;;4.03;1.70;;;20.40;42.50;;;;;;5031786;28;20049;-62
2022/04/22 07:19:43;;;;;;;2.40;1.65;;;20.40;42.60;;;;;;5031922;28;20460;-63
2022/04/22 07:22:09;;;;;;;2.17;1.90;;;20.40;42.50;;;;;;5032523;28;20044;-62
2022/04/22 07:24:35;;;;;;;2.38;1.83;;;20.40;42.50;;;;;;5019437;28;20041;-66
2022/04/22 07:27:02;;;;;;;3.22;2.05;;;20.40;42.50;;;;;;5040001;28;20147;-65
2022/04/22 07:29:33;;;;;;;2.03;1.80;;;20.40;42.50;;;;;;5032033;28;20106;-62
2022/04/22 07:31:59;;;;;;;4.05;2.28;;;20.40;42.40;;;;;;5032008;28;20071;-63
2022/04/22 07:34:24;;;;;;;2.42;1.95;;;20.40;42.30;;;;;;5015183;28;20099;-62
2022/04/22 07:36:50;;;;;;;2.33;1.90;;;20.50;42.40;;;;;;5032655;28;20378;-64
2022/04/22 07:39:16;;;;;;;2.30;1.65;;;20.50;42.30;;;;;;5034984;28;20108;-61
2022/04/22 07:41:43;;;;;;;4.07;2.13;;;20.40;42.20;;;;;;5033260;28;20357;-62
2022/04/22 07:46:59;;;;;;;2.53;1.80;;;20.40;41.30;;;;;;5048839;28;20063;-63
2022/04/22 07:49:26;;;;;;;2.38;2.17;;;20.40;41.30;;;;;;5031908;28;20088;-66
2022/04/22 07:51:52;;;;;;;9.93;2.45;;;20.40;41.00;;;;;;5032888;28;20047;-62
2022/04/22 07:54:17;;;;;;;9.13;2.78;;;20.40;40.90;;;;;;5031024;28;20041;-64
2022/04/22 07:56:43;;;;;;;3.75;2.03;;;20.40;40.90;;;;;;5048102;28;20069;-62
2022/04/22 07:59:09;;;;;;;3.97;2.22;;;20.40;40.90;;;;;;5032618;28;20594;-62
2022/04/22 08:01:35;;;;;;;3.28;2.03;;;20.40;40.80;;;;;;5031115;28;20116;-64
2022/04/22 08:04:01;;;;;;;4.07;2.17;;;20.40;40.60;;;;;;5034839;28;20342;-63
2022/04/22 08:06:27;;;;;;;3.25;2.20;;;20.40;40.50;;;;;;5033860;28;20072;-63
2022/04/22 08:08:53;;;;;;;4.05;2.10;;;20.40;40.70;;;;;;5032646;28;20670;-64
2022/04/22 08:11:21;;;;;;;4.50;2.42;;;20.40;40.60;;;;;;5034048;28;20045;-62
2022/04/22 08:13:47;;;;;;;3.45;2.22;;;20.40;40.30;;;;;;5034454;28;20077;-64
2022/04/22 08:16:13;;;;;;;4.40;2.30;;;20.40;40.50;;;;;;5039619;28;20083;-63
2022/04/22 08:18:39;;;;;;;1.95;1.70;;;20.40;40.30;;;;;;5047544;28;20045;-63
2022/04/22 08:21:04;;;;;;;2.90;2.20;;;20.30;40.30;;;;;;5048871;28;20103;-64
2022/04/22 08:23:30;;;;;;;3.10;2.08;;;20.40;40.30;;;;;;5030085;28;20053;-65
2022/04/22 08:25:56;;;;;;;3.63;2.17;;;20.30;40.40;;;;;;5030353;28;20829;-63
2022/04/22 08:28:21;;;;;;;6.95;2.75;;;20.30;40.30;;;;;;5027612;28;20653;-63
2022/04/22 08:30:47;;;;;;;3.88;2.00;;;20.30;40.50;;;;;;5031070;28;20088;-66
2022/04/22 08:33:13;;;;;;;3.70;2.00;;;20.30;40.20;;;;;;5047565;28;20041;-64
2022/04/22 08:35:39;;;;;;;6.18;2.58;;;20.30;40.10;;;;;;5030837;28;20448;-64
2022/04/22 08:38:06;;;;;;;2.75;2.40;;;20.30;39.90;;;;;;5033714;28;20053;-63
2022/04/22 08:40:36;;;;;;;2.30;1.98;;;20.30;39.80;;;;;;5031493;28;20072;-63
2022/04/22 08:43:03;;;;;;;3.78;2.13;;;20.30;39.90;;;;;;5032017;28;20041;-64
2022/04/22 08:45:29;;;;;;;1.85;1.58;;;20.30;40.30;;;;;;5030556;28;20049;-66
2022/04/22 08:50:42;;;;;;;5.20;2.10;;;20.30;40.40;;;;;;5048057;28;20130;-64
2022/04/22 08:53:11;;;;;;;4.95;2.10;;;20.30;40.40;;;;;;5030830;28;20098;-63
2022/04/22 08:55:38;;;;;;;1.58;1.45;;;20.30;40.40;;;;;;5031198;28;20036;-67
2022/04/22 08:58:05;;;;;;;1.55;1.45;;;20.30;40.50;;;;;;5038020;28;20033;-63
2022/04/22 09:00:35;;;;;;;2.88;1.50;;;20.30;40.50;;;;;;5032242;28;20041;-66
2022/04/22 09:03:01;;;;;;;6.20;2.28;;;20.30;40.50;;;;;;5029984;28;20044;-66
2022/04/22 09:05:27;;;;;;;9.55;2.13;;;20.30;40.40;;;;;;5030377;28;20048;-64
2022/04/22 09:07:54;;;;;;;10.90;2.40;;;20.30;40.10;;;;;;5029569;28;20037;-63
2022/04/22 09:10:20;;;;;;;6.07;2.30;;;20.30;40.20;;;;;;5032038;28;20068;-66
2022/04/22 09:12:54;;;;;;;4.68;2.17;;;20.30;40.10;;;;;;5032825;28;20584;-64
2022/04/22 09:15:25;;;;;;;8.35;1.88;;;20.30;40.10;;;;;;5039061;28;20047;-64
2022/04/22 09:17:57;;;;;;;5.00;1.90;;;20.30;40.10;;;;;;5032799;28;20036;-63
2022/04/22 09:20:29;;;;;;;7.20;1.73;;;20.30;40.30;;;;;;5035687;28;20509;-63
2022/04/22 09:22:56;;;;;;;10.00;2.35;;;20.30;40.30;;;;;;5041298;28;20531;-63
2022/04/22 09:25:23;;;;;;;9.10;2.70;;;20.30;40.30;;;;;;5033510;28;20112;-65
2022/04/22 09:27:49;;;;;;;15.88;2.60;;;20.30;40.20;;;;;;5046980;28;20055;-64
2022/04/22 09:30:15;;;;;;;9.23;2.00;;;20.30;40.20;;;;;;5020794;28;20045;-63
2022/04/22 09:32:44;;;;;;;7.20;1.55;;;20.30;40.10;;;;;;5033047;28;20103;-63
2022/04/22 09:35:11;;;;;;;5.57;1.55;;;20.30;40.40;;;;;;5031834;28;20037;-63
2022/04/22 09:43:37;;;;;;;7.43;1.65;;;20.30;40.30;;;;;;5033719;28;19964;-65
2022/04/22 09:46:03;;;;;;;3.85;1.55;;;20.30;40.80;;;;;;5034847;28;20045;-61
2022/04/22 09:48:44;;;;;;;5.57;1.50;;;20.30;40.90;;;;;;5033574;28;20068;-63
2022/04/22 09:51:30;;;;;;;3.47;1.40;;;20.30;40.50;;;;;;5034194;28;20432;-63
2022/04/22 09:54:14;;;;;;;2.47;1.20;;;20.30;40.60;;;;;;5049494;28;20045;-61
2022/04/22 09:56:55;;;;;;;2.60;1.40;;;20.30;40.70;;;;;;5035414;28;20036;-64
2022/04/22 09:59:21;;;;;;;;;;;20.30;40.60;;;;;;5039785;28;20060;-63
2022/04/22 10:01:48;;;;;;;4.75;1.30;;;20.30;40.50;;;;;;5048864;28;19927;-66
2022/04/22 10:04:17;;;;;;;2.00;0.93;;;20.20;40.60;;;;;;5034688;28;20131;-66
2022/04/22 10:06:44;;;;;;;6.03;1.45;;;20.20;40.60;;;;;;5036497;28;20167;-63
2022/04/22 10:09:10;;;;;;;4.57;1.50;;;20.30;40.60;;;;;;5034141;28;20107;-63
2022/04/22 10:11:37;;;;;;;6.93;1.63;;;20.20;40.60;;;;;;5031320;28;20211;-63
2022/04/22 10:14:09;;;;;;;6.80;1.55;;;20.20;40.30;;;;;;5034607;28;20041;-64
2022/04/22 10:16:35;;;;;;;2.80;1.20;;;20.30;40.00;;;;;;5040142;28;20033;-65
2022/04/22 10:19:02;;;;;;;3.85;1.20;;;20.20;40.10;;;;;;5033273;28;20038;-63
2022/04/22 10:21:28;;;;;;;3.90;1.15;;;20.20;40.10;;;;;;5030962;28;20073;-64
2022/04/22 10:23:56;;;;;;;1.85;1.15;;;20.20;40.10;;;;;;5031887;28;20049;-61
2022/04/22 10:26:22;;;;;;;2.63;1.23;;;20.30;39.90;;;;;;5034098;28;20393;-63
2022/04/22 10:28:48;;;;;;;4.07;1.40;;;20.30;40.20;;;;;;5031858;28;20124;-62
2022/04/22 10:31:15;;;;;;;2.05;1.08;;;20.30;40.30;;;;;;5047538;28;20042;-62
2022/04/22 10:33:43;;;;;;;2.97;1.10;;;20.30;40.30;;;;;;5032324;28;20057;-63
2022/04/22 10:36:12;;;;;;;2.33;1.38;;;20.30;40.50;;;;;;5016356;28;20073;-63
2022/04/22 10:38:39;;;;;;;2.95;1.30;;;20.30;40.50;;;;;;5041198;28;20098;-64
2022/04/22 10:41:19;;;;;;;3.10;1.08;;;20.30;40.60;;;;;;5029426;28;20104;-63
2022/04/22 10:49:40;;;;;;;4.07;1.50;;;20.30;40.10;;;;;;5034477;28;20041;-65
2022/04/22 10:52:11;;;;;;;2.25;1.20;;;20.30;40.80;;;;;;5042703;28;20052;-63
2022/04/22 10:54:52;;;;;;;1.02;0.80;;;20.30;40.10;;;;;;5036651;28;20455;-62
2022/04/22 10:57:19;;;;;;;2.45;1.20;;;20.30;40.10;;;;;;5036667;28;20044;-63
2022/04/22 10:59:46;;;;;;;3.40;1.33;;;20.30;40.00;;;;;;5038556;28;20037;-65
2022/04/22 11:02:31;;;;;;;3.95;1.25;;;20.30;40.10;;;;;;5035109;28;20584;-65
2022/04/22 11:05:19;;;;;;;3.47;1.35;;;20.30;39.90;;;;;;5032887;28;20036;-62
2022/04/22 11:07:50;;;;;;;2.83;1.33;;;20.30;39.90;;;;;;5038177;28;20030;-61
2022/04/22 11:10:17;;;;;;;4.20;1.42;;;20.30;40.10;;;;;;5036570;28;20490;-62
2022/04/22 11:13:02;;;;;;;2.40;1.23;;;20.30;40.00;;;;;;5035640;28;20450;-62
2022/04/22 11:15:43;;;;;;;1.45;0.93;;;20.40;40.00;;;;;;5037952;28;20079;-62
2022/04/22 11:18:09;;;;;;;;;;;20.40;40.00;;;;;;5039784;28;20044;-62
2022/04/22 11:20:38;;;;;;;2.33;1.25;;;20.30;39.90;;;;;;5034663;28;19925;-63
2022/04/22 11:23:05;;;;;;;2.90;1.13;;;20.30;40.00;;;;;;5052714;28;20037;-63
2022/04/22 11:25:32;;;;;;;2.20;1.30;;;20.30;40.10;;;;;;5049519;28;20041;-61
2022/04/22 11:27:59;;;;;;;3.20;1.13;;;20.30;40.10;;;;;;5036918;28;20435;-62
2022/04/22 11:30:26;;;;;;;2.13;1.00;;;20.30;40.30;;;;;;5039147;28;20053;-62
2022/04/22 11:33:01;;;;;;;2.85;1.33;;;20.30;40.30;;;;;;5051154;28;20056;-63
2022/04/22 11:35:33;;;;;;;2.28;1.42;;;20.30;40.30;;;;;;5035519;28;20080;-62
2022/04/22 11:38:01;;;;;;;1.98;1.20;;;20.30;40.40;;;;;;5034713;28;20044;-61
2022/04/22 11:40:27;;;;;;;1.52;1.10;;;20.30;40.40;;;;;;5035800;28;20041;-64
2022/04/22 11:42:54;;;;;;;2.72;1.10;;;20.30;40.50;;;;;;5036481;28;20083;-62
2022/04/22 11:45:21;;;;;;;4.05;1.42;;;20.30;40.50;;;;;;5036484;28;20037;-63
2022/04/22 11:47:47;;;;;;;1.63;1.45;;;20.30;40.60;;;;;;5037997;28;20045;-63
2022/04/22 11:50:21;;;;;;;2.55;1.20;;;20.30;40.60;;;;;;5035440;28;20056;-63
2022/04/22 11:52:56;;;;;;;1.98;1.55;;;20.30;40.70;;;;;;5033905;28;20042;-63
2022/04/22 11:55:22;;;;;;;2.38;1.40;;;20.30;40.70;;;;;;5035970;28;20120;-65
2022/04/22 11:57:48;;;;;;;2.17;1.13;;;20.30;40.80;;;;;;5038215;28;20055;-63
2022/04/22 12:05:50;;;;;;;5.72;1.60;;;20.30;40.60;;;;;;5035389;28;20052;-62
2022/04/22 12:08:16;;;;;;;2.00;1.33;;;20.30;40.30;;;;;;5035358;28;20046;-63
2022/04/22 12:10:46;;;;;;;3.20;1.60;;;20.30;40.30;;;;;;5035368;28;20068;-65
2022/04/22 12:13:13;;;;;;;2.15;1.58;;;20.30;40.30;;;;;;5034129;28;20069;-65
2022/04/22 12:15:42;;;;;;;2.28;1.38;;;20.30;40.20;;;;;;5036625;28;20068;-63
2022/04/22 12:18:08;;;;;;;2.78;1.77;;;20.30;40.20;;;;;;5034433;28;20075;-63
2022/04/22 12:20:33;;;;;;;2.92;1.30;;;20.30;40.00;;;;;;5033223;28;20088;-63
2022/04/22 12:23:00;;;;;;;1.70;1.50;;;20.30;40.90;;;;;;5037228;28;20571;-63
2022/04/22 12:25:25;;;;;;;1.55;1.27;;;20.30;40.30;;;;;;5038152;28;20037;-62
2022/04/22 12:28:13;;;;;;;1.88;1.73;;;20.30;40.20;;;;;;5033576;28;20047;-63
2022/04/22 12:30:42;;;;;;;2.13;1.45;;;20.30;40.60;;;;;;5045681;28;20052;-62
2022/04/22 12:33:18;;;;;;;2.30;1.70;;;20.30;40.00;;;;;;5032546;28;20080;-62
2022/04/22 12:35:45;;;;;;;1.60;1.23;;;20.30;39.90;;;;;;5032654;28;20045;-63
2022/04/22 12:38:13;;;;;;;4.22;1.63;;;20.30;40.00;;;;;;5034925;28;20152;-62
2022/04/22 12:40:49;;;;;;;3.92;1.60;;;20.30;40.00;;;;;;5035337;28;20080;-64
2022/04/22 12:43:32;;;;;;;2.35;1.20;;;20.30;39.90;;;;;;5032186;28;20076;-62
2022/04/22 12:52:15;;;;;;;2.63;1.55;;;20.30;39.80;;;;;;5033593;28;20087;-63
2022/04/22 12:54:43;;;;;;;6.43;2.22;;;20.30;39.80;;;;;;5039837;28;20041;-63
2022/04/22 12:57:20;;;;;;;4.18;2.33;;;20.30;40.20;;;;;;5029123;28;20475;-63
2022/04/22 12:59:49;;;;;;;3.95;1.95;;;20.40;40.70;;;;;;5031832;28;20374;-62
2022/04/22 13:02:15;;;;;;;7.57;2.85;;;20.40;40.80;;;;;;5040256;28;20128;-63
2022/04/22 13:04:54;;;;;;;6.78;2.28;;;20.40;40.80;;;;;;5032892;28;20077;-61
2022/04/22 13:07:21;;;;;;;2.97;2.10;;;20.40;40.70;;;;;;5034390;28;20060;-63
2022/04/22 13:09:47;;;;;;;4.20;2.25;;;20.40;40.70;;;;;;5034772;28;20878;-63
2022/04/22 13:12:13;;;;;;;5.13;2.20;;;20.40;40.70;;;;;;5031809;28;20029;-62
2022/04/22 13:14:38;;;;;;;3.90;2.10;;;20.40;40.80;;;;;;5032374;28;20034;-64
2022/04/22 13:17:04;;;;;;;3.83;2.30;;;20.40;40.80;;;;;;5033912;28;20040;-62
2022/04/22 13:19:30;;;;;;;5.00;2.30;;;20.40;40.80;;;;;;5033028;28;20033;-62
2022/04/22 13:21:55;;;;;;;3.60;2.28;;;20.40;40.80;;;;;;5030842;28;20025;-64
2022/04/22 13:24:21;;;;;;;3.40;2.10;;;20.40;41.10;;;;;;5034017;28;20123;-65
2022/04/22 13:26:47;;;;;;;4.57;2.10;;;20.40;41.20;;;;;;5033238;28;20405;-63
2022/04/22 13:29:12;;;;;;;3.42;1.98;;;20.40;41.20;;;;;;5031300;28;20048;-63
2022/04/22 13:31:38;;;;;;;2.53;2.22;;;20.40;41.30;;;;;;5034135;28;20106;-61
2022/04/22 13:34:04;;;;;;;3.97;2.05;;;20.40;41.40;;;;;;5034362;28;20049;-61
2022/04/22 13:36:31;;;;;;;2.60;1.92;;;20.40;41.50;;;;;;5034149;28;20035;-63
2022/04/22 13:38:56;;;;;;;3.25;2.10;;;20.40;41.50;;;;;;5033895;28;20045;-63
2022/04/22 13:41:22;;;;;;;4.15;2.10;;;20.40;41.60;;;;;;5033268;28;20503;-64
2022/04/22 13:43:47;;;;;;;3.22;2.20;;;20.40;41.50;;;;;;5033240;28;20701;-66
2022/04/22 13:54:45;;;;;;;3.40;2.08;;;20.40;41.90;;;;;;5001654;28;20046;-64
2022/04/22 13:57:12;;;;;;;4.05;2.25;;;20.50;42.00;;;;;;5017572;28;20053;-62
2022/04/22 13:59:37;;;;;;;3.28;2.20;;;20.50;42.20;;;;;;5031935;28;20792;-62
2022/04/22 14:02:03;;;;;;;2.30;2.10;;;20.50;42.30;;;;;;5032666;28;20037;-62
2022/04/22 14:04:30;;;;;;;2.88;2.40;;;20.50;42.50;;;;;;5031207;28;20045;-61